sensor_id;sensor_type;location;lat;lon;timestamp;temperature;humidity
51579;DHT22;47998;53.242;6.386;2022-10-16T00:01:36;12.30;99.90
51579;DHT22;47998;53.242;6.386;2022-10-16T00:04:02;12.20;99.90
51579;DHT22;47998;53.242;6.386;2022-10-16T00:06:29;12.10;99.90
51579;DHT22;47998;53.242;6.386;2022-10-16T00:08:55;12.10;99.90
51579;DHT22;47998;53.242;6.386;2022-10-16T00:11:32;12.10;99.90
51579;DHT22;47998;53.242;6.386;2022-10-16T00:14:06;12.00;99.90
51579;DHT22;47998;53.242;6.386;2022-10-16T00:16:32;12.10;99.90
51579;DHT22;47998;53.242;6.386;2022-10-16T00:18:59;12.00;99.90
51579;DHT22;47998;53.242;6.386;2022-10-16T00:21:27;12.00;99.90
51579;DHT22;47998;53.242;6.386;2022-10-16T00:23:56;12.00;99.90
51579;DHT22;47998;53.242;6.386;2022-10-16T00:26:22;12.00;99.90
51579;DHT22;47998;53.242;6.386;2022-10-16T00:28:49;12.00;99.90
51579;DHT22;47998;53.242;6.386;2022-10-16T00:31:16;12.00;99.90
51579;DHT22;47998;53.242;6.386;2022-10-16T00:33:43;12.10;99.90
51579;DHT22;47998;53.242;6.386;2022-10-16T00:36:11;12.00;99.90
51579;DHT22;47998;53.242;6.386;2022-10-16T00:38:37;12.10;99.90
51579;DHT22;47998;53.242;6.386;2022-10-16T00:41:07;12.10;99.90
51579;DHT22;47998;53.242;6.386;2022-10-16T00:43:44;12.10;99.90
51579;DHT22;47998;53.242;6.386;2022-10-16T00:46:21;12.00;99.90
51579;DHT22;47998;53.242;6.386;2022-10-16T00:49:01;12.10;99.90
51579;DHT22;47998;53.242;6.386;2022-10-16T00:51:35;12.10;99.90
51579;DHT22;47998;53.242;6.386;2022-10-16T00:54:06;12.00;99.90
51579;DHT22;47998;53.242;6.386;2022-10-16T00:56:33;12.00;99.90
51579;DHT22;47998;53.242;6.386;2022-10-16T00:58:59;12.10;99.90
51579;DHT22;47998;53.242;6.386;2022-10-16T01:01:27;12.10;99.90
51579;DHT22;47998;53.242;6.386;2022-10-16T01:03:53;12.20;99.90
51579;DHT22;47998;53.242;6.386;2022-10-16T01:06:25;12.20;99.90
51579;DHT22;47998;53.242;6.386;2022-10-16T01:12:25;12.20;99.90
51579;DHT22;47998;53.242;6.386;2022-10-16T01:14:44;12.20;99.90
51579;DHT22;47998;53.242;6.386;2022-10-16T01:17:32;12.20;99.90
51579;DHT22;47998;53.242;6.386;2022-10-16T01:20:28;12.20;99.90
51579;DHT22;47998;53.242;6.386;2022-10-16T01:28:27;12.40;99.90
51579;DHT22;47998;53.242;6.386;2022-10-16T01:30:56;12.30;99.90
51579;DHT22;47998;53.242;6.386;2022-10-16T01:33:29;12.40;99.90
51579;DHT22;47998;53.242;6.386;2022-10-16T01:35:59;12.40;99.90
51579;DHT22;47998;53.242;6.386;2022-10-16T01:38:38;12.40;99.90
51579;DHT22;47998;53.242;6.386;2022-10-16T01:41:15;12.50;99.90
51579;DHT22;47998;53.242;6.386;2022-10-16T01:43:56;12.50;99.90
51579;DHT22;47998;53.242;6.386;2022-10-16T01:46:25;12.60;99.90
51579;DHT22;47998;53.242;6.386;2022-10-16T01:48:52;12.60;99.90
51579;DHT22;47998;53.242;6.386;2022-10-16T01:51:19;12.60;99.90
51579;DHT22;47998;53.242;6.386;2022-10-16T01:53:55;12.70;99.90
51579;DHT22;47998;53.242;6.386;2022-10-16T01:56:23;12.60;99.90
51579;DHT22;47998;53.242;6.386;2022-10-16T01:58:57;12.70;99.90
51579;DHT22;47998;53.242;6.386;2022-10-16T02:01:26;12.60;99.90
51579;DHT22;47998;53.242;6.386;2022-10-16T02:03:54;12.60;99.90
51579;DHT22;47998;53.242;6.386;2022-10-16T02:06:21;12.70;99.90
51579;DHT22;47998;53.242;6.386;2022-10-16T02:08:48;12.60;99.90
51579;DHT22;47998;53.242;6.386;2022-10-16T02:11:13;12.70;99.90
51579;DHT22;47998;53.242;6.386;2022-10-16T02:13:53;12.70;99.90
51579;DHT22;47998;53.242;6.386;2022-10-16T02:16:20;12.70;99.90
51579;DHT22;47998;53.242;6.386;2022-10-16T02:18:46;12.80;99.90
51579;DHT22;47998;53.242;6.386;2022-10-16T02:21:54;12.80;99.90
51579;DHT22;47998;53.242;6.386;2022-10-16T02:24:43;12.80;99.90
51579;DHT22;47998;53.242;6.386;2022-10-16T02:27:37;12.80;99.90
51579;DHT22;47998;53.242;6.386;2022-10-16T02:30:37;12.90;99.90
51579;DHT22;47998;53.242;6.386;2022-10-16T02:33:07;12.80;99.90
51579;DHT22;47998;53.242;6.386;2022-10-16T02:35:34;12.90;99.90
51579;DHT22;47998;53.242;6.386;2022-10-16T02:38:00;12.90;99.90
51579;DHT22;47998;53.242;6.386;2022-10-16T02:40:26;12.90;99.90
51579;DHT22;47998;53.242;6.386;2022-10-16T02:42:53;12.90;99.90
51579;DHT22;47998;53.242;6.386;2022-10-16T02:45:21;12.90;99.90
51579;DHT22;47998;53.242;6.386;2022-10-16T02:47:47;12.70;99.90
51579;DHT22;47998;53.242;6.386;2022-10-16T02:50:13;12.80;99.90
51579;DHT22;47998;53.242;6.386;2022-10-16T02:52:39;12.70;99.90
51579;DHT22;47998;53.242;6.386;2022-10-16T02:55:05;12.70;99.90
51579;DHT22;47998;53.242;6.386;2022-10-16T02:57:31;12.60;99.90
51579;DHT22;47998;53.242;6.386;2022-10-16T02:59:57;12.50;99.90
51579;DHT22;47998;53.242;6.386;2022-10-16T03:02:23;12.50;99.90
51579;DHT22;47998;53.242;6.386;2022-10-16T03:04:49;12.40;99.90
51579;DHT22;47998;53.242;6.386;2022-10-16T03:07:14;12.40;99.90
51579;DHT22;47998;53.242;6.386;2022-10-16T03:09:40;12.40;99.90
51579;DHT22;47998;53.242;6.386;2022-10-16T03:12:06;12.30;99.90
51579;DHT22;47998;53.242;6.386;2022-10-16T03:14:32;12.20;99.90
51579;DHT22;47998;53.242;6.386;2022-10-16T03:16:58;12.30;99.90
51579;DHT22;47998;53.242;6.386;2022-10-16T03:19:23;12.20;99.90
51579;DHT22;47998;53.242;6.386;2022-10-16T03:21:49;12.20;99.90
51579;DHT22;47998;53.242;6.386;2022-10-16T03:24:15;12.10;99.90
51579;DHT22;47998;53.242;6.386;2022-10-16T03:26:41;12.10;99.90
51579;DHT22;47998;53.242;6.386;2022-10-16T03:29:07;12.10;99.90
51579;DHT22;47998;53.242;6.386;2022-10-16T03:31:32;12.10;99.90
51579;DHT22;47998;53.242;6.386;2022-10-16T03:33:58;12.10;99.90
51579;DHT22;47998;53.242;6.386;2022-10-16T03:36:24;12.20;99.90
51579;DHT22;47998;53.242;6.386;2022-10-16T03:38:50;12.10;99.90
51579;DHT22;47998;53.242;6.386;2022-10-16T03:41:15;12.10;99.90
51579;DHT22;47998;53.242;6.386;2022-10-16T03:43:41;12.10;99.90
51579;DHT22;47998;53.242;6.386;2022-10-16T03:46:07;12.00;99.90
51579;DHT22;47998;53.242;6.386;2022-10-16T03:48:33;12.00;99.90
51579;DHT22;47998;53.242;6.386;2022-10-16T03:50:58;12.00;99.90
51579;DHT22;47998;53.242;6.386;2022-10-16T03:53:24;12.00;99.90
51579;DHT22;47998;53.242;6.386;2022-10-16T03:55:50;11.90;99.90
51579;DHT22;47998;53.242;6.386;2022-10-16T03:58:16;11.90;99.90
51579;DHT22;47998;53.242;6.386;2022-10-16T04:00:46;11.80;99.90
51579;DHT22;47998;53.242;6.386;2022-10-16T04:03:13;11.80;99.90
51579;DHT22;47998;53.242;6.386;2022-10-16T04:05:39;11.90;99.90
51579;DHT22;47998;53.242;6.386;2022-10-16T04:08:05;11.90;99.90
51579;DHT22;47998;53.242;6.386;2022-10-16T04:10:30;11.90;99.90
51579;DHT22;47998;53.242;6.386;2022-10-16T04:12:56;11.90;99.90
51579;DHT22;47998;53.242;6.386;2022-10-16T04:15:23;11.90;99.90
51579;DHT22;47998;53.242;6.386;2022-10-16T04:17:49;11.90;99.90
51579;DHT22;47998;53.242;6.386;2022-10-16T04:20:15;11.90;99.90
51579;DHT22;47998;53.242;6.386;2022-10-16T04:22:40;11.90;99.90
51579;DHT22;47998;53.242;6.386;2022-10-16T04:25:06;11.90;99.90
51579;DHT22;47998;53.242;6.386;2022-10-16T04:27:32;11.90;99.90
51579;DHT22;47998;53.242;6.386;2022-10-16T04:29:59;12.00;99.90
51579;DHT22;47998;53.242;6.386;2022-10-16T04:32:25;12.00;99.90
51579;DHT22;47998;53.242;6.386;2022-10-16T04:34:51;12.00;99.90
51579;DHT22;47998;53.242;6.386;2022-10-16T04:37:17;12.10;99.90
51579;DHT22;47998;53.242;6.386;2022-10-16T04:39:43;12.10;99.90
51579;DHT22;47998;53.242;6.386;2022-10-16T04:42:09;12.10;99.90
51579;DHT22;47998;53.242;6.386;2022-10-16T04:44:34;12.10;99.90
51579;DHT22;47998;53.242;6.386;2022-10-16T04:47:00;12.10;99.90
51579;DHT22;47998;53.242;6.386;2022-10-16T04:49:26;12.20;99.90
51579;DHT22;47998;53.242;6.386;2022-10-16T04:51:52;12.30;99.90
51579;DHT22;47998;53.242;6.386;2022-10-16T04:54:17;12.20;99.90
51579;DHT22;47998;53.242;6.386;2022-10-16T04:56:43;12.30;99.90
51579;DHT22;47998;53.242;6.386;2022-10-16T04:59:13;12.30;99.90
51579;DHT22;47998;53.242;6.386;2022-10-16T05:01:40;12.30;99.90
51579;DHT22;47998;53.242;6.386;2022-10-16T05:04:05;12.40;99.90
51579;DHT22;47998;53.242;6.386;2022-10-16T05:06:31;12.40;99.90
51579;DHT22;47998;53.242;6.386;2022-10-16T05:08:57;12.40;99.90
51579;DHT22;47998;53.242;6.386;2022-10-16T05:11:22;12.50;99.90
51579;DHT22;47998;53.242;6.386;2022-10-16T05:13:48;12.50;99.90
51579;DHT22;47998;53.242;6.386;2022-10-16T05:16:14;12.50;99.90
51579;DHT22;47998;53.242;6.386;2022-10-16T05:18:40;12.50;99.90
51579;DHT22;47998;53.242;6.386;2022-10-16T05:21:05;12.50;99.90
51579;DHT22;47998;53.242;6.386;2022-10-16T05:23:31;12.50;99.90
51579;DHT22;47998;53.242;6.386;2022-10-16T05:25:58;12.50;99.90
51579;DHT22;47998;53.242;6.386;2022-10-16T05:28:27;12.50;99.90
51579;DHT22;47998;53.242;6.386;2022-10-16T05:30:54;12.40;99.90
51579;DHT22;47998;53.242;6.386;2022-10-16T05:33:21;12.50;99.90
51579;DHT22;47998;53.242;6.386;2022-10-16T05:35:47;12.50;99.90
51579;DHT22;47998;53.242;6.386;2022-10-16T05:38:13;12.50;99.90
51579;DHT22;47998;53.242;6.386;2022-10-16T05:40:38;12.50;99.90
51579;DHT22;47998;53.242;6.386;2022-10-16T05:43:05;12.40;99.90
51579;DHT22;47998;53.242;6.386;2022-10-16T05:45:30;12.40;99.90
51579;DHT22;47998;53.242;6.386;2022-10-16T05:47:56;12.40;99.90
51579;DHT22;47998;53.242;6.386;2022-10-16T05:50:21;12.40;99.90
51579;DHT22;47998;53.242;6.386;2022-10-16T05:52:47;12.30;99.90
51579;DHT22;47998;53.242;6.386;2022-10-16T05:55:13;12.20;99.90
51579;DHT22;47998;53.242;6.386;2022-10-16T05:57:39;12.20;99.90
51579;DHT22;47998;53.242;6.386;2022-10-16T06:00:05;12.20;99.90
51579;DHT22;47998;53.242;6.386;2022-10-16T06:02:31;12.20;99.90
51579;DHT22;47998;53.242;6.386;2022-10-16T06:04:56;12.10;99.90
51579;DHT22;47998;53.242;6.386;2022-10-16T06:07:22;12.00;99.90
51579;DHT22;47998;53.242;6.386;2022-10-16T06:09:52;12.10;99.90
51579;DHT22;47998;53.242;6.386;2022-10-16T06:12:18;12.10;99.90
51579;DHT22;47998;53.242;6.386;2022-10-16T06:14:45;12.10;99.90
51579;DHT22;47998;53.242;6.386;2022-10-16T06:17:15;12.10;99.90
51579;DHT22;47998;53.242;6.386;2022-10-16T06:19:41;12.20;99.90
51579;DHT22;47998;53.242;6.386;2022-10-16T06:22:07;12.30;99.90
51579;DHT22;47998;53.242;6.386;2022-10-16T06:24:33;12.30;99.90
51579;DHT22;47998;53.242;6.386;2022-10-16T06:26:58;12.30;99.90
51579;DHT22;47998;53.242;6.386;2022-10-16T06:29:24;12.40;99.90
51579;DHT22;47998;53.242;6.386;2022-10-16T06:31:50;12.40;99.90
51579;DHT22;47998;53.242;6.386;2022-10-16T06:34:16;12.40;99.90
51579;DHT22;47998;53.242;6.386;2022-10-16T06:36:41;12.40;99.90
51579;DHT22;47998;53.242;6.386;2022-10-16T06:39:08;12.40;99.90
51579;DHT22;47998;53.242;6.386;2022-10-16T06:41:34;12.50;99.90
51579;DHT22;47998;53.242;6.386;2022-10-16T06:44:00;12.50;99.90
51579;DHT22;47998;53.242;6.386;2022-10-16T06:46:27;12.50;99.90
51579;DHT22;47998;53.242;6.386;2022-10-16T06:48:53;12.50;99.90
51579;DHT22;47998;53.242;6.386;2022-10-16T06:51:20;12.50;99.90
51579;DHT22;47998;53.242;6.386;2022-10-16T06:53:49;12.50;99.90
51579;DHT22;47998;53.242;6.386;2022-10-16T06:56:17;12.60;99.90
51579;DHT22;47998;53.242;6.386;2022-10-16T06:58:44;12.60;99.90
51579;DHT22;47998;53.242;6.386;2022-10-16T07:01:10;12.60;99.90
51579;DHT22;47998;53.242;6.386;2022-10-16T07:03:37;12.60;99.90
51579;DHT22;47998;53.242;6.386;2022-10-16T07:06:05;12.70;99.90
51579;DHT22;47998;53.242;6.386;2022-10-16T07:08:32;12.70;99.90
51579;DHT22;47998;53.242;6.386;2022-10-16T07:11:12;12.80;99.90
51579;DHT22;47998;53.242;6.386;2022-10-16T07:13:40;12.80;99.90
51579;DHT22;47998;53.242;6.386;2022-10-16T07:16:07;12.80;99.90
51579;DHT22;47998;53.242;6.386;2022-10-16T07:18:33;12.80;99.90
51579;DHT22;47998;53.242;6.386;2022-10-16T07:21:09;12.80;99.90
51579;DHT22;47998;53.242;6.386;2022-10-16T07:23:35;12.70;99.90
51579;DHT22;47998;53.242;6.386;2022-10-16T07:26:01;12.70;99.90
51579;DHT22;47998;53.242;6.386;2022-10-16T07:28:28;12.70;99.90
51579;DHT22;47998;53.242;6.386;2022-10-16T07:30:54;12.80;99.90
51579;DHT22;47998;53.242;6.386;2022-10-16T07:33:20;12.80;99.90
51579;DHT22;47998;53.242;6.386;2022-10-16T07:35:53;12.90;99.90
51579;DHT22;47998;53.242;6.386;2022-10-16T07:38:20;12.90;99.90
51579;DHT22;47998;53.242;6.386;2022-10-16T07:40:46;13.00;99.90
51579;DHT22;47998;53.242;6.386;2022-10-16T07:43:12;13.00;99.90
51579;DHT22;47998;53.242;6.386;2022-10-16T07:45:49;13.00;99.90
51579;DHT22;47998;53.242;6.386;2022-10-16T07:48:16;12.90;99.90
51579;DHT22;47998;53.242;6.386;2022-10-16T07:50:42;12.80;99.90
51579;DHT22;47998;53.242;6.386;2022-10-16T07:53:08;12.80;99.90
51579;DHT22;47998;53.242;6.386;2022-10-16T07:55:33;12.80;99.90
51579;DHT22;47998;53.242;6.386;2022-10-16T07:57:59;12.70;99.90
51579;DHT22;47998;53.242;6.386;2022-10-16T08:00:25;12.70;99.90
51579;DHT22;47998;53.242;6.386;2022-10-16T08:02:50;12.70;99.90
51579;DHT22;47998;53.242;6.386;2022-10-16T08:05:16;12.70;99.90
51579;DHT22;47998;53.242;6.386;2022-10-16T08:07:42;12.70;99.90
51579;DHT22;47998;53.242;6.386;2022-10-16T08:10:16;12.80;99.90
51579;DHT22;47998;53.242;6.386;2022-10-16T08:12:42;12.90;99.90
51579;DHT22;47998;53.242;6.386;2022-10-16T08:15:08;13.10;99.90
51579;DHT22;47998;53.242;6.386;2022-10-16T08:17:34;13.20;99.90
51579;DHT22;47998;53.242;6.386;2022-10-16T08:20:00;13.50;99.90
51579;DHT22;47998;53.242;6.386;2022-10-16T08:22:26;13.70;99.90
51579;DHT22;47998;53.242;6.386;2022-10-16T08:24:51;13.80;99.90
51579;DHT22;47998;53.242;6.386;2022-10-16T08:27:17;13.90;99.90
51579;DHT22;47998;53.242;6.386;2022-10-16T08:29:43;13.90;99.90
51579;DHT22;47998;53.242;6.386;2022-10-16T08:32:08;13.60;99.90
51579;DHT22;47998;53.242;6.386;2022-10-16T08:34:34;13.70;99.90
51579;DHT22;47998;53.242;6.386;2022-10-16T08:37:00;13.60;99.90
51579;DHT22;47998;53.242;6.386;2022-10-16T08:39:25;13.50;99.90
51579;DHT22;47998;53.242;6.386;2022-10-16T08:50:50;13.90;99.90
51579;DHT22;47998;53.242;6.386;2022-10-16T08:53:22;13.90;99.90
51579;DHT22;47998;53.242;6.386;2022-10-16T08:55:51;13.80;99.90
51579;DHT22;47998;53.242;6.386;2022-10-16T08:58:27;13.70;99.90
51579;DHT22;47998;53.242;6.386;2022-10-16T09:00:56;13.70;99.90
51579;DHT22;47998;53.242;6.386;2022-10-16T09:06:21;13.80;99.90
51579;DHT22;47998;53.242;6.386;2022-10-16T09:17:38;14.40;99.90
51579;DHT22;47998;53.242;6.386;2022-10-16T09:23:28;15.40;99.90
51579;DHT22;47998;53.242;6.386;2022-10-16T09:25:55;15.20;99.90
51579;DHT22;47998;53.242;6.386;2022-10-16T09:28:22;15.10;99.90
51579;DHT22;47998;53.242;6.386;2022-10-16T09:30:48;14.90;99.90
51579;DHT22;47998;53.242;6.386;2022-10-16T09:33:16;15.00;99.90
51579;DHT22;47998;53.242;6.386;2022-10-16T09:35:46;14.80;99.90
51579;DHT22;47998;53.242;6.386;2022-10-16T09:38:33;14.70;99.90
51579;DHT22;47998;53.242;6.386;2022-10-16T09:41:20;14.60;99.90
51579;DHT22;47998;53.242;6.386;2022-10-16T09:48:51;15.40;99.90
51579;DHT22;47998;53.242;6.386;2022-10-16T09:51:25;15.70;99.90
51579;DHT22;47998;53.242;6.386;2022-10-16T09:54:16;16.00;99.90
51579;DHT22;47998;53.242;6.386;2022-10-16T09:56:42;16.50;99.90
51579;DHT22;47998;53.242;6.386;2022-10-16T09:59:19;17.00;1.00
51579;DHT22;47998;53.242;6.386;2022-10-16T10:01:50;17.00;99.90
51579;DHT22;47998;53.242;6.386;2022-10-16T10:04:19;17.30;99.90
51579;DHT22;47998;53.242;6.386;2022-10-16T10:06:48;17.40;99.90
51579;DHT22;47998;53.242;6.386;2022-10-16T10:16:51;17.60;1.00
51579;DHT22;47998;53.242;6.386;2022-10-16T10:19:17;17.70;99.90
51579;DHT22;47998;53.242;6.386;2022-10-16T10:21:44;17.60;99.90
51579;DHT22;47998;53.242;6.386;2022-10-16T10:24:14;17.70;99.90
51579;DHT22;47998;53.242;6.386;2022-10-16T10:29:17;17.90;1.00
51579;DHT22;47998;53.242;6.386;2022-10-16T10:32:14;18.20;99.90
51579;DHT22;47998;53.242;6.386;2022-10-16T10:34:54;18.30;99.90
51579;DHT22;47998;53.242;6.386;2022-10-16T10:43:35;17.70;99.90
51579;DHT22;47998;53.242;6.386;2022-10-16T10:46:09;17.40;99.90
51579;DHT22;47998;53.242;6.386;2022-10-16T10:51:21;17.70;1.00
51579;DHT22;47998;53.242;6.386;2022-10-16T10:59:19;17.80;99.90
51579;DHT22;47998;53.242;6.386;2022-10-16T11:02:15;18.00;99.90
51579;DHT22;47998;53.242;6.386;2022-10-16T11:05:07;17.70;1.00
51579;DHT22;47998;53.242;6.386;2022-10-16T11:15:53;16.40;99.90
51579;DHT22;47998;53.242;6.386;2022-10-16T11:18:45;16.10;1.00
51579;DHT22;47998;53.242;6.386;2022-10-16T11:21:14;15.80;99.90
51579;DHT22;47998;53.242;6.386;2022-10-16T11:24:16;15.90;49.60
51579;DHT22;47998;53.242;6.386;2022-10-16T11:26:35;15.90;1.00
51579;DHT22;47998;53.242;6.386;2022-10-16T11:32:28;15.30;99.90
51579;DHT22;47998;53.242;6.386;2022-10-16T11:34:59;15.10;99.90
51579;DHT22;47998;53.242;6.386;2022-10-16T11:37:29;15.00;1.00
51579;DHT22;47998;53.242;6.386;2022-10-16T11:40:03;14.80;99.90
51579;DHT22;47998;53.242;6.386;2022-10-16T11:42:39;15.00;1.00
51579;DHT22;47998;53.242;6.386;2022-10-16T11:55:45;17.90;99.90
51579;DHT22;47998;53.242;6.386;2022-10-16T12:01:36;18.20;99.90
51579;DHT22;47998;53.242;6.386;2022-10-16T12:04:14;18.40;99.90
51579;DHT22;47998;53.242;6.386;2022-10-16T12:07:00;18.60;97.10
51579;DHT22;47998;53.242;6.386;2022-10-16T12:09:34;18.30;99.90
51579;DHT22;47998;53.242;6.386;2022-10-16T12:12:01;18.10;51.60
51579;DHT22;47998;53.242;6.386;2022-10-16T12:17:04;17.30;99.90
51579;DHT22;47998;53.242;6.386;2022-10-16T12:20:21;17.30;99.90
51579;DHT22;47998;53.242;6.386;2022-10-16T12:22:55;17.30;1.00
51579;DHT22;47998;53.242;6.386;2022-10-16T12:25:33;17.40;1.00
51579;DHT22;47998;53.242;6.386;2022-10-16T12:28:17;17.70;99.90
51579;DHT22;47998;53.242;6.386;2022-10-16T12:30:53;17.50;99.90
51579;DHT22;47998;53.242;6.386;2022-10-16T12:33:23;17.20;1.00
51579;DHT22;47998;53.242;6.386;2022-10-16T12:35:50;16.90;99.90
51579;DHT22;47998;53.242;6.386;2022-10-16T12:38:20;16.40;99.90
51579;DHT22;47998;53.242;6.386;2022-10-16T12:40:59;16.20;99.90
51579;DHT22;47998;53.242;6.386;2022-10-16T12:43:27;15.90;99.90
51579;DHT22;47998;53.242;6.386;2022-10-16T12:46:04;15.80;99.90
51579;DHT22;47998;53.242;6.386;2022-10-16T12:48:29;16.00;1.00
51579;DHT22;47998;53.242;6.386;2022-10-16T12:50:56;16.20;99.90
51579;DHT22;47998;53.242;6.386;2022-10-16T12:53:26;16.20;99.90
51579;DHT22;47998;53.242;6.386;2022-10-16T13:01:52;16.10;1.00
51579;DHT22;47998;53.242;6.386;2022-10-16T13:07:19;16.00;99.90
51579;DHT22;47998;53.242;6.386;2022-10-16T13:12:41;16.20;99.90
51579;DHT22;47998;53.242;6.386;2022-10-16T13:26:17;16.70;99.90
51579;DHT22;47998;53.242;6.386;2022-10-16T13:28:47;16.90;99.90
51579;DHT22;47998;53.242;6.386;2022-10-16T13:31:20;16.90;99.90
51579;DHT22;47998;53.242;6.386;2022-10-16T13:33:49;16.90;99.90
51579;DHT22;47998;53.242;6.386;2022-10-16T13:36:29;16.90;99.90
51579;DHT22;47998;53.242;6.386;2022-10-16T13:41:38;17.00;99.90
51579;DHT22;47998;53.242;6.386;2022-10-16T13:44:04;17.10;1.00
51579;DHT22;47998;53.242;6.386;2022-10-16T13:46:30;17.30;80.50
51579;DHT22;47998;53.242;6.386;2022-10-16T13:49:05;17.40;1.00
51579;DHT22;47998;53.242;6.386;2022-10-16T13:51:32;17.50;1.00
51579;DHT22;47998;53.242;6.386;2022-10-16T13:53:58;17.50;1.00
51579;DHT22;47998;53.242;6.386;2022-10-16T13:56:29;17.60;1.00
51579;DHT22;47998;53.242;6.386;2022-10-16T13:59:04;17.80;1.00
51579;DHT22;47998;53.242;6.386;2022-10-16T14:01:51;18.00;1.00
51579;DHT22;47998;53.242;6.386;2022-10-16T14:04:19;18.00;99.90
51579;DHT22;47998;53.242;6.386;2022-10-16T14:06:46;17.80;1.00
51579;DHT22;47998;53.242;6.386;2022-10-16T14:09:26;17.60;99.90
51579;DHT22;47998;53.242;6.386;2022-10-16T14:11:56;17.30;1.00
51579;DHT22;47998;53.242;6.386;2022-10-16T14:14:23;17.20;10.60
51579;DHT22;47998;53.242;6.386;2022-10-16T14:16:49;17.10;84.40
51579;DHT22;47998;53.242;6.386;2022-10-16T14:19:26;17.00;5.80
51579;DHT22;47998;53.242;6.386;2022-10-16T14:21:53;17.00;1.00
51579;DHT22;47998;53.242;6.386;2022-10-16T14:24:32;17.00;99.90
51579;DHT22;47998;53.242;6.386;2022-10-16T14:27:01;16.90;99.90
51579;DHT22;47998;53.242;6.386;2022-10-16T14:29:29;16.90;99.90
51579;DHT22;47998;53.242;6.386;2022-10-16T14:32:03;16.90;99.90
51579;DHT22;47998;53.242;6.386;2022-10-16T14:34:32;16.90;57.40
51579;DHT22;47998;53.242;6.386;2022-10-16T14:37:22;16.90;99.90
51579;DHT22;47998;53.242;6.386;2022-10-16T14:39:50;17.10;89.60
51579;DHT22;47998;53.242;6.386;2022-10-16T14:42:18;17.20;1.00
51579;DHT22;47998;53.242;6.386;2022-10-16T14:44:45;17.20;1.00
51579;DHT22;47998;53.242;6.386;2022-10-16T14:47:14;17.10;15.40
51579;DHT22;47998;53.242;6.386;2022-10-16T14:49:42;16.80;1.00
51579;DHT22;47998;53.242;6.386;2022-10-16T14:52:11;16.50;1.00
51579;DHT22;47998;53.242;6.386;2022-10-16T14:54:37;16.20;43.70
51579;DHT22;47998;53.242;6.386;2022-10-16T14:57:04;15.90;99.90
51579;DHT22;47998;53.242;6.386;2022-10-16T14:59:42;15.70;99.90
51579;DHT22;47998;53.242;6.386;2022-10-16T15:04:48;15.50;1.00
51579;DHT22;47998;53.242;6.386;2022-10-16T15:07:13;15.40;1.00
51579;DHT22;47998;53.242;6.386;2022-10-16T15:09:39;15.40;1.00
51579;DHT22;47998;53.242;6.386;2022-10-16T15:12:05;15.40;20.80
51579;DHT22;47998;53.242;6.386;2022-10-16T15:14:31;15.30;99.90
51579;DHT22;47998;53.242;6.386;2022-10-16T15:16:57;15.30;99.90
51579;DHT22;47998;53.242;6.386;2022-10-16T15:19:23;15.30;99.90
51579;DHT22;47998;53.242;6.386;2022-10-16T15:21:48;15.30;99.90
51579;DHT22;47998;53.242;6.386;2022-10-16T15:24:15;15.30;99.90
51579;DHT22;47998;53.242;6.386;2022-10-16T15:26:41;15.20;99.90
51579;DHT22;47998;53.242;6.386;2022-10-16T15:29:07;15.20;99.90
51579;DHT22;47998;53.242;6.386;2022-10-16T15:31:33;15.10;1.00
51579;DHT22;47998;53.242;6.386;2022-10-16T15:33:59;15.10;1.00
51579;DHT22;47998;53.242;6.386;2022-10-16T15:36:31;15.00;1.00
51579;DHT22;47998;53.242;6.386;2022-10-16T15:39:00;14.90;10.80
51579;DHT22;47998;53.242;6.386;2022-10-16T15:41:26;14.80;99.90
51579;DHT22;47998;53.242;6.386;2022-10-16T15:43:52;14.70;99.90
51579;DHT22;47998;53.242;6.386;2022-10-16T15:46:19;14.70;99.90
51579;DHT22;47998;53.242;6.386;2022-10-16T15:48:50;14.60;99.90
51579;DHT22;47998;53.242;6.386;2022-10-16T15:51:18;14.50;99.90
51579;DHT22;47998;53.242;6.386;2022-10-16T15:53:44;14.50;99.90
51579;DHT22;47998;53.242;6.386;2022-10-16T15:56:12;14.30;1.00
51579;DHT22;47998;53.242;6.386;2022-10-16T15:58:38;14.30;1.00
51579;DHT22;47998;53.242;6.386;2022-10-16T16:01:05;14.10;99.90
51579;DHT22;47998;53.242;6.386;2022-10-16T16:03:31;14.00;99.90
51579;DHT22;47998;53.242;6.386;2022-10-16T16:05:58;13.80;1.00
51579;DHT22;47998;53.242;6.386;2022-10-16T16:08:24;13.70;1.00
51579;DHT22;47998;53.242;6.386;2022-10-16T16:11:05;13.50;99.90
51579;DHT22;47998;53.242;6.386;2022-10-16T16:13:31;13.40;99.90
51579;DHT22;47998;53.242;6.386;2022-10-16T16:15:57;13.30;99.90
51579;DHT22;47998;53.242;6.386;2022-10-16T16:18:23;13.10;1.00
51579;DHT22;47998;53.242;6.386;2022-10-16T16:20:50;13.00;1.00
51579;DHT22;47998;53.242;6.386;2022-10-16T16:23:16;12.90;4.00
51579;DHT22;47998;53.242;6.386;2022-10-16T16:25:42;12.70;99.90
51579;DHT22;47998;53.242;6.386;2022-10-16T16:28:08;12.60;99.90
51579;DHT22;47998;53.242;6.386;2022-10-16T16:30:36;12.50;99.90
51579;DHT22;47998;53.242;6.386;2022-10-16T16:33:02;12.40;1.00
51579;DHT22;47998;53.242;6.386;2022-10-16T16:35:28;12.30;1.00
51579;DHT22;47998;53.242;6.386;2022-10-16T16:37:54;12.20;1.00
51579;DHT22;47998;53.242;6.386;2022-10-16T16:40:20;12.10;17.90
51579;DHT22;47998;53.242;6.386;2022-10-16T16:42:48;12.00;99.90
51579;DHT22;47998;53.242;6.386;2022-10-16T16:45:14;11.90;99.90
51579;DHT22;47998;53.242;6.386;2022-10-16T16:47:39;11.80;99.90
51579;DHT22;47998;53.242;6.386;2022-10-16T16:50:06;11.80;99.90
51579;DHT22;47998;53.242;6.386;2022-10-16T16:52:33;11.70;99.90
51579;DHT22;47998;53.242;6.386;2022-10-16T16:54:59;11.60;99.90
51579;DHT22;47998;53.242;6.386;2022-10-16T16:57:25;11.60;99.90
51579;DHT22;47998;53.242;6.386;2022-10-16T16:59:51;11.50;99.90
51579;DHT22;47998;53.242;6.386;2022-10-16T17:02:17;11.40;99.90
51579;DHT22;47998;53.242;6.386;2022-10-16T17:04:43;11.30;99.90
51579;DHT22;47998;53.242;6.386;2022-10-16T17:07:08;11.30;99.90
51579;DHT22;47998;53.242;6.386;2022-10-16T17:09:34;11.30;99.90
51579;DHT22;47998;53.242;6.386;2022-10-16T17:12:00;11.20;99.90
51579;DHT22;47998;53.242;6.386;2022-10-16T17:14:26;11.20;99.90
51579;DHT22;47998;53.242;6.386;2022-10-16T17:16:52;11.10;99.90
51579;DHT22;47998;53.242;6.386;2022-10-16T17:19:18;11.10;99.90
51579;DHT22;47998;53.242;6.386;2022-10-16T17:21:47;11.10;99.90
51579;DHT22;47998;53.242;6.386;2022-10-16T17:24:13;11.00;99.90
51579;DHT22;47998;53.242;6.386;2022-10-16T17:26:39;11.00;99.90
51579;DHT22;47998;53.242;6.386;2022-10-16T17:29:10;11.00;99.90
51579;DHT22;47998;53.242;6.386;2022-10-16T17:31:36;11.00;99.90
51579;DHT22;47998;53.242;6.386;2022-10-16T17:34:05;10.90;99.90
51579;DHT22;47998;53.242;6.386;2022-10-16T17:36:33;10.90;99.90
51579;DHT22;47998;53.242;6.386;2022-10-16T17:39:02;10.80;99.90
51579;DHT22;47998;53.242;6.386;2022-10-16T17:41:30;10.80;99.90
51579;DHT22;47998;53.242;6.386;2022-10-16T17:43:55;10.80;99.90